createdAt,value
2018-12-14T00:01:32.245Z,66.83
2018-12-14T00:04:04.748Z,87.83
2018-12-14T00:06:40.769Z,69.67
2018-12-14T00:09:13.037Z,68.10
2018-12-14T00:11:49.117Z,70.97
2018-12-14T00:14:24.914Z,69.63
2018-12-14T00:17:01.169Z,60.43
2018-12-14T00:19:37.252Z,61.53
2018-12-14T00:22:13.579Z,64.67
2018-12-14T00:24:49.755Z,62.40
2018-12-14T00:27:22.285Z,61.27
2018-12-14T00:29:58.357Z,61.13
2018-12-14T00:32:34.402Z,57.50
2018-12-14T00:35:10.513Z,59.93
2018-12-14T00:37:46.782Z,57.87
2018-12-14T00:40:23.420Z,61.03
2018-12-14T00:42:59.228Z,61.57
2018-12-14T00:45:35.378Z,63.47
2018-12-14T00:48:11.480Z,57.00
2018-12-14T00:50:47.680Z,57.93
2018-12-14T00:53:23.809Z,59.23
2018-12-14T00:55:59.709Z,62.47
2018-12-14T00:58:35.928Z,63.50
2018-12-14T01:01:12.013Z,63.37
2018-12-14T01:03:48.068Z,66.20
2018-12-14T01:06:24.373Z,69.70
2018-12-14T01:08:56.644Z,68.50
2018-12-14T01:11:32.968Z,67.57
2018-12-14T01:14:09.153Z,69.33
2018-12-14T01:16:45.143Z,76.20
2018-12-14T01:19:21.352Z,73.80
2018-12-14T01:21:53.636Z,76.63
2018-12-14T01:24:29.884Z,75.73
2018-12-14T01:27:05.861Z,83.50
2018-12-14T01:29:42.220Z,74.80
2018-12-14T01:32:18.253Z,68.77
2018-12-14T01:34:54.389Z,73.37
2018-12-14T01:37:30.605Z,74.10
2018-12-14T01:40:07.344Z,68.73
2018-12-14T01:42:39.862Z,70.00
2018-12-14T01:45:12.191Z,65.87
2018-12-14T01:47:44.404Z,70.30
2018-12-14T01:50:20.628Z,69.50
2018-12-14T01:52:56.641Z,67.93
2018-12-14T01:55:32.957Z,70.73
2018-12-14T01:58:09.172Z,67.83
2018-12-14T02:00:45.414Z,71.50
2018-12-14T02:03:21.404Z,74.90
2018-12-14T02:05:57.548Z,59.57
2018-12-14T02:08:33.751Z,65.03
2018-12-14T02:11:09.958Z,73.10
2018-12-14T02:13:42.204Z,70.80
2018-12-14T02:16:14.495Z,72.63
2018-12-14T02:18:50.613Z,68.70
2018-12-14T02:21:26.732Z,72.67
2018-12-14T02:23:59.017Z,70.30
2018-12-14T02:41:55.060Z,75.40
2018-12-14T02:44:30.681Z,69.80
2018-12-14T03:17:47.469Z,73.23
2018-12-14T03:20:23.779Z,67.47
2018-12-14T03:22:59.641Z,64.67
2018-12-14T03:25:35.724Z,70.37
2018-12-14T03:28:07.965Z,65.07
2018-12-14T03:30:44.123Z,65.40
2018-12-14T03:33:20.331Z,71.37
2018-12-14T03:35:56.414Z,66.57
2018-12-14T03:38:32.417Z,70.20
2018-12-14T03:41:08.401Z,63.03
2018-12-14T03:43:44.352Z,60.87
2018-12-14T03:46:20.281Z,64.93
2018-12-14T03:48:56.318Z,67.20
2018-12-14T03:51:32.553Z,66.20
2018-12-14T03:54:08.446Z,68.27
2018-12-14T03:56:44.681Z,73.40
2018-12-14T03:59:17.000Z,64.63
2018-12-14T04:01:53.113Z,59.70
2018-12-14T04:04:29.098Z,56.93
2018-12-14T04:07:05.196Z,62.97
2018-12-14T04:09:41.366Z,67.83
2018-12-14T04:12:17.493Z,61.03
2018-12-14T04:14:53.733Z,60.60
2018-12-14T04:19:58.835Z,68.63
2018-12-14T04:45:31.893Z,72.97
2018-12-14T04:48:08.089Z,76.17
2018-12-14T04:58:19.849Z,61.73
2018-12-14T05:00:55.948Z,64.73
2018-12-14T05:03:32.145Z,69.70
2018-12-14T05:06:08.320Z,72.23
2018-12-14T05:08:44.228Z,69.20
2018-12-14T05:11:20.426Z,71.37
2018-12-14T05:13:56.512Z,62.23
2018-12-14T05:16:32.781Z,67.03
2018-12-14T05:19:08.984Z,66.47
2018-12-14T05:21:45.213Z,74.17
2018-12-14T05:24:21.128Z,69.00
2018-12-14T05:26:57.176Z,66.17
2018-12-14T05:29:33.173Z,69.27
2018-12-14T05:32:09.271Z,64.27
2018-12-14T05:34:41.598Z,63.83
2018-12-14T05:37:17.709Z,70.50
2018-12-14T05:39:53.636Z,70.87
2018-12-14T05:42:25.853Z,69.03
2018-12-14T05:44:58.214Z,68.23
2018-12-14T05:47:34.438Z,64.13
2018-12-14T05:50:10.550Z,68.87
2018-12-14T05:52:46.513Z,65.47
2018-12-14T05:55:22.633Z,69.63
2018-12-14T05:57:58.719Z,70.10
2018-12-14T06:00:35.744Z,73.00
2018-12-14T06:03:11.944Z,74.13
2018-12-14T06:05:44.265Z,69.30
2018-12-14T06:08:16.802Z,78.87
2018-12-14T06:10:52.835Z,72.17
2018-12-14T06:13:28.860Z,71.60
2018-12-14T06:16:01.125Z,55.33
2018-12-14T06:18:37.371Z,79.93
2018-12-14T06:21:13.402Z,73.67
2018-12-14T06:23:45.616Z,76.77
2018-12-14T06:26:21.616Z,76.00
2018-12-14T06:28:57.941Z,66.63
2018-12-14T06:31:30.214Z,72.93
2018-12-14T06:34:06.327Z,69.03
2018-12-14T06:36:38.510Z,68.47
2018-12-14T06:39:15.144Z,71.73
2018-12-14T06:41:50.971Z,75.63
2018-12-14T06:44:26.805Z,69.73
2018-12-14T06:47:02.803Z,73.30
2018-12-14T06:49:39.019Z,73.33
2018-12-14T06:52:15.259Z,75.30
2018-12-14T06:54:51.396Z,74.93
2018-12-14T06:57:27.628Z,77.97
2018-12-14T06:59:59.832Z,62.80
2018-12-14T07:02:36.129Z,66.73
2018-12-14T07:05:12.236Z,72.70
2018-12-14T07:07:48.340Z,51.23
2018-12-14T07:10:24.536Z,62.23
2018-12-14T07:13:00.676Z,67.73
2018-12-14T07:15:36.879Z,57.83
2018-12-14T07:18:12.965Z,66.77
2018-12-14T07:20:49.507Z,64.13
2018-12-14T07:23:25.505Z,66.63
2018-12-14T07:26:01.644Z,74.30
2018-12-14T07:28:33.853Z,67.80
2018-12-14T07:31:09.983Z,68.87
2018-12-14T07:33:46.068Z,59.90
2018-12-14T07:36:22.296Z,61.30
2018-12-14T07:38:54.489Z,62.13
2018-12-14T07:41:30.645Z,60.90
2018-12-14T07:44:02.968Z,63.17
2018-12-14T07:46:39.096Z,64.10
2018-12-14T07:49:15.040Z,59.33
2018-12-14T07:51:47.443Z,61.00
2018-12-14T07:54:23.511Z,63.33
2018-12-14T07:56:59.633Z,59.20
2018-12-14T07:59:35.816Z,54.13
2018-12-14T08:02:11.853Z,53.80
2018-12-14T08:07:17.988Z,48.83
2018-12-14T08:09:53.974Z,57.00
2018-12-14T08:12:30.085Z,50.10
2018-12-14T08:15:11.297Z,46.97
2018-12-14T08:17:44.476Z,42.90
2018-12-14T08:20:20.597Z,42.63
2018-12-14T08:22:56.741Z,44.93
2018-12-14T08:25:32.735Z,40.73
2018-12-14T08:28:09.093Z,42.87
2018-12-14T08:30:45.238Z,45.57
2018-12-14T08:33:21.363Z,39.60
2018-12-14T08:35:57.463Z,38.83
2018-12-14T08:38:33.594Z,42.33
2018-12-14T08:41:10.540Z,42.77
2018-12-14T08:43:46.796Z,44.63
2018-12-14T08:46:23.008Z,43.80
2018-12-14T08:48:59.408Z,43.70
2018-12-14T08:51:35.316Z,40.93
2018-12-14T08:54:07.714Z,41.37
2018-12-14T08:56:43.869Z,37.53
2018-12-14T08:59:19.783Z,34.47
2018-12-14T09:01:55.950Z,38.20
2018-12-14T09:04:31.971Z,42.43
2018-12-14T09:07:08.052Z,38.97
2018-12-14T09:12:15.177Z,41.00
2018-12-14T09:14:47.485Z,50.77
2018-12-14T09:30:10.601Z,35.00
2018-12-14T09:32:46.660Z,34.57
2018-12-14T09:35:22.771Z,36.30
2018-12-14T09:37:58.864Z,33.47
2018-12-14T09:40:34.992Z,35.03
2018-12-14T09:43:10.912Z,37.80
2018-12-14T09:45:47.030Z,34.67
2018-12-14T09:48:19.297Z,38.77
2018-12-14T09:50:51.709Z,37.53
2018-12-14T09:53:27.823Z,34.70
2018-12-14T09:56:03.931Z,26.50
2018-12-14T09:58:36.169Z,26.63
2018-12-14T10:01:12.256Z,24.50
2018-12-14T10:03:48.840Z,26.60
2018-12-14T10:06:24.672Z,21.53
2018-12-14T10:09:00.843Z,26.47
2018-12-14T10:11:36.945Z,22.67
2018-12-14T10:14:12.978Z,17.77
2018-12-14T10:16:49.061Z,27.77
2018-12-14T10:19:25.219Z,25.33
2018-12-14T10:22:01.221Z,25.90
2018-12-14T10:24:37.325Z,24.30
2018-12-14T10:27:09.661Z,26.70
2018-12-14T10:29:45.852Z,26.87
2018-12-14T10:32:21.993Z,24.40
2018-12-14T10:34:58.133Z,25.03
2018-12-14T10:37:30.341Z,24.37
2018-12-14T10:40:02.690Z,28.33
2018-12-14T10:42:38.780Z,25.93
2018-12-14T10:45:11.099Z,26.90
2018-12-14T10:47:43.360Z,32.30
2018-12-14T10:50:19.713Z,28.43
2018-12-14T10:52:55.596Z,26.13
2018-12-14T10:55:31.773Z,26.03
2018-12-14T10:58:07.644Z,27.67
2018-12-14T11:00:48.933Z,26.47
2018-12-14T11:03:24.925Z,30.70
2018-12-14T11:06:01.248Z,27.40
2018-12-14T11:08:37.441Z,27.10
2018-12-14T11:11:13.687Z,26.93
2018-12-14T11:13:49.774Z,27.23
2018-12-14T11:16:25.864Z,23.50
2018-12-14T11:19:02.015Z,23.40
2018-12-14T11:21:34.256Z,24.73
2018-12-14T11:24:06.463Z,25.97
2018-12-14T11:26:42.804Z,19.43
2018-12-14T11:29:18.877Z,23.73
2018-12-14T11:31:55.040Z,28.17
2018-12-14T11:34:29.841Z,25.83
2018-12-14T11:37:05.682Z,27.77
2018-12-14T11:39:38.033Z,27.70
2018-12-14T11:42:14.237Z,27.67
2018-12-14T11:44:50.379Z,24.47
2018-12-14T11:47:22.738Z,25.07
2018-12-14T11:49:58.831Z,29.13
2018-12-14T11:52:31.413Z,26.60
2018-12-14T11:55:09.297Z,25.43
2018-12-14T11:57:44.976Z,23.47
2018-12-14T12:00:21.014Z,25.40
2018-12-14T12:02:53.420Z,22.53
2018-12-14T12:05:29.207Z,24.83
2018-12-14T12:08:01.668Z,21.23
2018-12-14T12:10:37.364Z,27.00
2018-12-14T12:13:13.428Z,25.93
2018-12-14T12:15:49.516Z,27.53
2018-12-14T12:18:25.757Z,31.30
2018-12-14T12:21:01.742Z,31.97
2018-12-14T12:23:34.005Z,31.80
2018-12-14T12:26:10.116Z,29.57
2018-12-14T12:28:46.048Z,28.50
2018-12-14T12:31:18.292Z,31.23
2018-12-14T12:33:54.432Z,33.47
2018-12-14T12:39:05.946Z,33.70
2018-12-14T12:41:41.872Z,34.93
2018-12-14T12:44:17.975Z,35.13
2018-12-14T12:46:54.164Z,36.30
2018-12-14T12:49:30.265Z,36.20
2018-12-14T12:52:06.977Z,34.47
2018-12-14T12:54:43.133Z,32.23
2018-12-14T12:57:19.053Z,36.33
2018-12-14T12:59:51.393Z,36.33
2018-12-14T13:02:23.704Z,38.70
2018-12-14T13:05:00.134Z,31.77
2018-12-14T13:07:36.264Z,38.07
2018-12-14T13:10:08.647Z,37.50
2018-12-14T13:12:44.452Z,38.17
2018-12-14T13:15:20.451Z,37.77
2018-12-14T13:17:56.405Z,37.10
2018-12-14T13:20:32.461Z,39.67
2018-12-14T13:23:04.769Z,43.43
2018-12-14T13:25:41.087Z,38.50
2018-12-14T13:28:17.203Z,39.43
2018-12-14T13:30:53.385Z,37.33
2018-12-14T13:33:29.455Z,40.57
2018-12-14T13:36:05.458Z,35.80
2018-12-14T13:38:41.745Z,35.20
2018-12-14T13:59:07.657Z,45.07
2018-12-14T14:01:43.632Z,42.80
2018-12-14T14:04:19.667Z,42.57
2018-12-14T14:06:55.802Z,43.53
2018-12-14T14:09:31.941Z,42.53
2018-12-14T14:12:08.092Z,47.50
2018-12-14T14:14:40.477Z,46.07
2018-12-14T14:17:16.585Z,47.20
2018-12-14T14:19:49.136Z,52.73
2018-12-14T14:22:24.996Z,45.67
2018-12-14T14:25:00.977Z,43.57
2018-12-14T14:27:36.886Z,43.10
2018-12-14T14:30:13.077Z,44.47
2018-12-14T14:32:45.260Z,44.77
2018-12-14T14:35:21.566Z,36.70
2018-12-14T14:37:57.718Z,37.20
2018-12-14T14:40:33.905Z,43.33
2018-12-14T14:43:09.920Z,42.33
2018-12-14T14:45:46.099Z,41.17
2018-12-14T14:48:22.336Z,34.07
2018-12-14T14:50:54.616Z,31.00
2018-12-14T14:53:26.960Z,35.07
2018-12-14T14:56:02.884Z,39.17
2018-12-14T14:58:39.125Z,35.73
2018-12-14T15:01:11.465Z,31.73
2018-12-14T15:03:48.738Z,47.07
2018-12-14T15:06:24.941Z,38.43
2018-12-14T15:09:01.101Z,37.17
2018-12-14T15:11:37.323Z,34.17
2018-12-14T15:14:13.501Z,30.50
2018-12-14T15:16:49.682Z,31.80
2018-12-14T15:19:25.824Z,30.20
2018-12-14T15:22:04.383Z,29.03
2018-12-14T15:24:36.344Z,31.80
2018-12-14T15:27:12.555Z,33.70
2018-12-14T15:29:48.634Z,36.67
2018-12-14T15:32:25.189Z,27.17
2018-12-14T15:35:00.945Z,31.37
2018-12-14T15:37:37.261Z,28.53
2018-12-14T15:40:13.842Z,30.50
2018-12-14T15:42:46.373Z,23.87
2018-12-14T15:45:22.515Z,30.53
2018-12-14T15:47:58.799Z,25.97
2018-12-14T15:50:34.649Z,25.50
2018-12-14T15:53:10.846Z,29.47
2018-12-14T15:55:46.984Z,30.57
2018-12-14T15:58:23.265Z,28.53
2018-12-14T16:00:59.309Z,23.97
2018-12-14T16:03:35.479Z,27.23
2018-12-14T16:06:11.520Z,19.83
2018-12-14T16:08:47.730Z,21.57
2018-12-14T16:11:23.932Z,24.00
2018-12-14T16:14:00.209Z,22.70
2018-12-14T16:16:36.393Z,22.77
2018-12-14T16:19:08.839Z,22.60
2018-12-14T16:21:44.842Z,16.90
2018-12-14T16:24:21.027Z,26.03
2018-12-14T16:26:56.960Z,26.93
2018-12-14T16:29:33.403Z,24.73
2018-12-14T16:32:09.632Z,24.87
2018-12-14T16:34:45.815Z,21.53
2018-12-14T16:37:22.022Z,22.63
2018-12-14T16:39:58.323Z,20.60
2018-12-14T16:42:34.484Z,23.70
2018-12-14T16:45:10.472Z,20.33
2018-12-14T16:47:46.749Z,22.27
2018-12-14T16:50:22.952Z,21.07
2018-12-14T16:52:58.991Z,17.70
2018-12-14T16:55:35.144Z,18.60
2018-12-14T16:58:11.353Z,23.00
2018-12-14T17:00:47.699Z,24.90
2018-12-14T17:03:23.680Z,22.90
2018-12-14T17:05:59.965Z,19.60
2018-12-14T17:08:36.098Z,21.30
2018-12-14T17:11:12.257Z,19.63
2018-12-14T17:13:48.342Z,19.67
2018-12-14T17:36:48.165Z,27.10
2018-12-14T17:39:24.476Z,25.90
2018-12-14T17:42:00.662Z,24.07
2018-12-14T17:44:36.700Z,23.87
2018-12-14T17:47:12.994Z,27.43
2018-12-14T17:49:48.866Z,27.77
2018-12-14T17:52:21.181Z,27.63
2018-12-14T17:54:57.208Z,29.60
2018-12-14T17:57:29.429Z,29.40
2018-12-14T18:00:06.260Z,31.27
2018-12-14T18:02:38.756Z,29.00
2018-12-14T18:05:14.977Z,25.57
2018-12-14T18:07:47.193Z,24.73
2018-12-14T18:10:23.513Z,25.50
2018-12-14T18:12:59.678Z,27.07
2018-12-14T18:15:35.780Z,20.20
2018-12-14T18:18:11.965Z,18.97
2018-12-14T18:20:48.120Z,22.70
2018-12-14T18:23:24.163Z,24.63
2018-12-14T18:25:59.938Z,26.43
2018-12-14T18:28:35.905Z,25.73
2018-12-14T18:31:12.112Z,30.23
2018-12-14T18:33:48.169Z,26.30
2018-12-14T18:36:24.339Z,28.77
2018-12-14T18:39:00.461Z,27.87
2018-12-14T18:41:36.605Z,26.93
2018-12-14T19:12:20.872Z,33.97
2018-12-14T19:14:56.585Z,33.87
2018-12-14T19:17:32.552Z,34.00
2018-12-14T19:20:08.652Z,32.50
2018-12-14T19:22:44.901Z,30.90
2018-12-14T19:25:21.198Z,34.77
2018-12-14T19:27:57.302Z,38.17
2018-12-14T19:30:29.713Z,36.50
2018-12-14T19:33:05.692Z,33.43
2018-12-14T19:35:42.004Z,37.67
2018-12-14T19:38:18.283Z,42.83
2018-12-14T19:40:54.384Z,39.33
2018-12-14T19:43:30.488Z,40.23
2018-12-14T19:46:06.720Z,35.57
2018-12-14T19:48:42.715Z,36.87
2018-12-14T19:51:18.998Z,41.97
2018-12-14T19:53:55.213Z,43.80
2018-12-14T19:56:31.343Z,37.83
2018-12-14T19:59:07.481Z,41.63
2018-12-14T20:01:43.994Z,43.40
2018-12-14T20:04:19.946Z,41.10
2018-12-14T20:06:56.865Z,43.60
2018-12-14T20:09:29.360Z,41.47
2018-12-14T20:12:05.673Z,41.23
2018-12-14T20:17:14.870Z,46.47
2018-12-14T20:19:50.976Z,41.67
2018-12-14T20:22:27.121Z,43.83
2018-12-14T20:25:03.296Z,44.03
2018-12-14T20:27:39.223Z,39.30
2018-12-14T20:30:15.355Z,45.77
2018-12-14T20:32:51.351Z,42.50
2018-12-14T20:35:27.774Z,39.50
2018-12-14T20:38:04.035Z,39.53
2018-12-14T20:40:39.945Z,43.07
2018-12-14T20:43:16.075Z,39.03
2018-12-14T20:45:48.747Z,45.10
2018-12-14T20:48:27.849Z,43.93
2018-12-14T20:51:03.766Z,44.80
2018-12-14T20:53:40.049Z,43.97
2018-12-14T20:56:16.374Z,44.20
2018-12-14T20:58:52.328Z,46.47
2018-12-14T21:01:24.673Z,43.93
2018-12-14T21:04:00.814Z,47.13
2018-12-14T21:06:37.004Z,50.33
2018-12-14T21:09:13.061Z,45.47
2018-12-14T21:11:49.369Z,52.77
2018-12-14T21:14:25.493Z,49.10
2018-12-14T21:17:01.610Z,44.83
2018-12-14T21:34:58.638Z,46.07
2018-12-14T21:37:30.930Z,44.63
2018-12-14T21:40:07.804Z,45.70
2018-12-14T21:42:44.105Z,46.73
2018-12-14T21:45:20.178Z,47.70
2018-12-14T21:47:56.341Z,47.20
2018-12-14T21:50:32.375Z,47.33
2018-12-14T21:53:14.219Z,44.83
2018-12-14T21:55:46.595Z,44.97
2018-12-14T21:58:22.713Z,46.83
2018-12-14T22:00:58.989Z,45.17
2018-12-14T22:03:34.878Z,47.07
2018-12-14T22:06:10.957Z,49.97
2018-12-14T22:08:47.157Z,49.33
2018-12-14T22:11:23.204Z,46.73
2018-12-14T22:13:59.422Z,49.60
2018-12-14T22:16:39.215Z,45.80
2018-12-14T22:19:13.987Z,52.70
2018-12-14T22:21:50.253Z,54.07
2018-12-14T22:24:26.050Z,52.53
2018-12-14T22:27:02.152Z,50.47
2018-12-14T22:29:38.290Z,56.13
2018-12-14T22:32:14.367Z,52.00
2018-12-14T22:34:46.677Z,51.40
2018-12-14T22:37:22.628Z,49.20
2018-12-14T22:39:58.524Z,49.60
2018-12-14T22:42:34.766Z,52.20
2018-12-14T22:45:10.821Z,56.93
2018-12-14T22:47:47.140Z,52.03
2018-12-14T22:50:23.171Z,48.67
2018-12-14T22:52:55.589Z,53.40
2018-12-14T22:55:31.688Z,47.13
2018-12-14T22:58:07.907Z,53.17
2018-12-14T23:00:49.289Z,49.13
2018-12-14T23:03:24.976Z,50.70
2018-12-14T23:06:01.095Z,55.47
2018-12-14T23:08:37.016Z,55.07
2018-12-14T23:11:13.256Z,53.73
2018-12-14T23:13:49.349Z,56.40
2018-12-14T23:16:21.612Z,51.03
2018-12-14T23:18:57.649Z,49.37
2018-12-14T23:21:33.851Z,52.23
2018-12-14T23:24:09.778Z,52.77
2018-12-14T23:26:42.007Z,55.70
2018-12-14T23:29:17.973Z,55.37
2018-12-14T23:31:50.226Z,54.83
2018-12-14T23:34:26.316Z,60.93
2018-12-14T23:37:02.468Z,54.77
2018-12-14T23:39:34.765Z,61.77
2018-12-14T23:42:07.510Z,58.87
2018-12-14T23:44:43.206Z,57.77
2018-12-14T23:47:19.565Z,64.03
2018-12-14T23:49:55.773Z,63.77
2018-12-14T23:52:32.081Z,56.43
2018-12-14T23:55:08.076Z,56.07
2018-12-14T23:57:40.304Z,57.33
